createdAt,value
2018-02-04T00:00:39.682Z,1008.07
2018-02-04T00:01:39.655Z,1008.06
2018-02-04T00:02:39.613Z,1008.02
2018-02-04T00:03:39.604Z,1008.03
2018-02-04T00:04:39.794Z,1008.02
2018-02-04T00:05:39.517Z,1008.08
2018-02-04T00:06:39.483Z,1008.07
2018-02-04T00:07:39.447Z,1008.11
2018-02-04T00:08:39.428Z,1008.03
2018-02-04T00:09:39.377Z,1008.07
2018-02-04T00:10:39.342Z,1008.07
2018-02-04T00:11:39.321Z,1008.12
2018-02-04T00:12:39.280Z,1008.13
2018-02-04T00:13:39.243Z,1008.16
2018-02-04T00:14:39.216Z,1008.07
2018-02-04T00:15:39.485Z,1008.17
2018-02-04T00:16:39.141Z,1008.20
2018-02-04T00:17:39.113Z,1008.24
2018-02-04T00:18:39.075Z,1008.17
2018-02-04T00:19:39.039Z,1008.23
2018-02-04T00:20:39.006Z,1008.25
2018-02-04T00:21:39.225Z,1008.23
2018-02-04T00:22:38.945Z,1008.29
2018-02-04T00:23:38.907Z,1008.29
2018-02-04T00:24:38.875Z,1008.29
2018-02-04T00:25:38.839Z,1008.31
2018-02-04T00:26:38.806Z,1008.27
2018-02-04T00:27:38.777Z,1008.33
2018-02-04T00:28:38.744Z,1008.31
2018-02-04T00:29:38.706Z,1008.33
2018-02-04T00:30:38.675Z,1008.31
2018-02-04T00:31:38.641Z,1008.24
2018-02-04T00:32:38.614Z,1008.23
2018-02-04T00:33:38.578Z,1008.31
2018-02-04T00:34:38.534Z,1008.40
2018-02-04T00:35:38.499Z,1008.41
2018-02-04T00:36:38.464Z,1008.43
2018-02-04T00:37:38.647Z,1008.33
2018-02-04T00:38:38.408Z,1008.43
2018-02-04T00:39:38.365Z,1008.37
2018-02-04T00:40:38.335Z,1008.47
2018-02-04T00:41:38.301Z,1008.44
2018-02-04T00:42:38.267Z,1008.42
2018-02-04T00:43:38.240Z,1008.46
2018-02-04T00:44:38.201Z,1008.44
2018-02-04T00:45:38.166Z,1008.44
2018-02-04T00:46:38.140Z,1008.47
2018-02-04T00:47:38.103Z,1008.48
2018-02-04T00:48:38.066Z,1008.50
2018-02-04T00:49:38.034Z,1008.52
2018-02-04T00:50:38.003Z,1008.51
2018-02-04T00:51:37.960Z,1008.51
2018-02-04T00:52:37.928Z,1008.48
2018-02-04T00:53:37.900Z,1008.53
2018-02-04T00:54:37.860Z,1008.52
2018-02-04T00:55:37.828Z,1008.55
2018-02-04T00:56:37.791Z,1008.51
2018-02-04T00:57:38.019Z,1008.56
2018-02-04T00:58:37.730Z,1008.54
2018-02-04T00:59:37.695Z,1008.57
2018-02-04T01:00:37.663Z,1008.56
2018-02-04T01:01:37.631Z,1008.54
2018-02-04T01:02:37.594Z,1008.51
2018-02-04T01:03:37.574Z,1008.57
2018-02-04T01:04:37.525Z,1008.54
2018-02-04T01:05:37.500Z,1008.49
2018-02-04T01:06:37.469Z,1008.54
2018-02-04T01:07:37.428Z,1008.50
2018-02-04T01:08:37.390Z,1008.55
2018-02-04T01:09:37.353Z,1008.50
2018-02-04T01:10:37.321Z,1008.53
2018-02-04T01:11:37.287Z,1008.53
2018-02-04T01:12:37.262Z,1008.52
2018-02-04T01:13:37.223Z,1008.53
2018-02-04T01:14:39.141Z,1008.59
2018-02-04T01:15:37.155Z,1008.57
2018-02-04T01:16:37.114Z,1008.62
2018-02-04T01:17:37.095Z,1008.58
2018-02-04T01:18:37.050Z,1008.60
2018-02-04T01:19:37.011Z,1008.62
2018-02-04T01:20:37.231Z,1008.63
2018-02-04T01:21:36.957Z,1008.61
2018-02-04T01:22:36.914Z,1008.64
2018-02-04T01:23:36.889Z,1008.62
2018-02-04T01:24:36.857Z,1008.56
2018-02-04T01:25:36.812Z,1008.65
2018-02-04T01:26:36.774Z,1008.64
2018-02-04T01:27:36.754Z,1008.70
2018-02-04T01:28:36.714Z,1008.67
2018-02-04T01:29:36.681Z,1008.69
2018-02-04T01:30:36.645Z,1008.72
2018-02-04T01:31:36.610Z,1008.71
2018-02-04T01:32:36.825Z,1008.70
2018-02-04T01:33:36.543Z,1008.70
2018-02-04T01:34:36.506Z,1008.74
2018-02-04T01:35:36.480Z,1008.72
2018-02-04T01:36:36.437Z,1008.79
2018-02-04T01:37:36.415Z,1008.78
2018-02-04T01:38:36.371Z,1008.78
2018-02-04T01:39:36.346Z,1008.75
2018-02-04T01:40:36.301Z,1008.78
2018-02-04T01:41:36.264Z,1008.82
2018-02-04T01:42:36.238Z,1008.77
2018-02-04T01:43:36.226Z,1008.84
2018-02-04T01:44:36.173Z,1008.86
2018-02-04T01:45:36.133Z,1008.83
2018-02-04T01:46:36.099Z,1008.81
2018-02-04T01:47:36.060Z,1008.81
2018-02-04T01:48:36.030Z,1008.78
2018-02-04T01:49:36.007Z,1008.85
2018-02-04T01:50:36.264Z,1008.84
2018-02-04T01:51:35.925Z,1008.83
2018-02-04T01:52:35.896Z,1008.86
2018-02-04T01:53:35.857Z,1008.85
2018-02-04T01:54:35.826Z,1008.90
2018-02-04T01:55:35.800Z,1008.84
2018-02-04T01:56:35.766Z,1008.91
2018-02-04T01:57:35.720Z,1008.88
2018-02-04T01:58:35.690Z,1008.89
2018-02-04T01:59:35.658Z,1008.90
2018-02-04T02:00:35.622Z,1008.92
2018-02-04T02:01:35.593Z,1008.93
2018-02-04T02:02:35.559Z,1008.91
2018-02-04T02:03:35.525Z,1008.91
2018-02-04T02:04:35.486Z,1008.95
2018-02-04T02:05:35.456Z,1008.93
2018-02-04T02:06:35.463Z,1008.93
2018-02-04T02:07:36.433Z,1008.93
2018-02-04T02:08:35.352Z,1009.02
2018-02-04T02:09:35.318Z,1009.00
2018-02-04T02:10:35.280Z,1008.99
2018-02-04T02:11:35.252Z,1008.99
2018-02-04T02:12:35.217Z,1009.03
2018-02-04T02:13:35.203Z,1009.02
2018-02-04T02:14:35.152Z,1009.09
2018-02-04T02:15:35.115Z,1009.10
2018-02-04T02:16:35.092Z,1009.14
2018-02-04T02:17:35.050Z,1009.15
2018-02-04T02:18:35.018Z,1009.16
2018-02-04T02:19:34.987Z,1009.17
2018-02-04T02:20:34.942Z,1009.20
2018-02-04T02:21:34.915Z,1009.17
2018-02-04T02:22:34.886Z,1009.15
2018-02-04T02:23:34.846Z,1009.17
2018-02-04T02:24:34.810Z,1009.13
2018-02-04T02:25:34.778Z,1009.17
2018-02-04T02:26:34.743Z,1009.20
2018-02-04T02:27:34.721Z,1009.14
2018-02-04T02:28:34.682Z,1009.19
2018-02-04T02:29:34.891Z,1009.19
2018-02-04T02:30:34.613Z,1009.24
2018-02-04T02:31:34.586Z,1009.24
2018-02-04T02:32:34.545Z,1009.28
2018-02-04T02:33:34.507Z,1009.28
2018-02-04T02:34:34.477Z,1009.26
2018-02-04T02:35:34.735Z,1009.28
2018-02-04T02:36:34.404Z,1009.30
2018-02-04T02:37:34.377Z,1009.31
2018-02-04T02:38:34.337Z,1009.37
2018-02-04T02:39:34.301Z,1009.35
2018-02-04T02:40:34.273Z,1009.36
2018-02-04T02:41:34.237Z,1009.32
2018-02-04T02:42:34.202Z,1009.35
2018-02-04T02:43:34.173Z,1009.36
2018-02-04T02:44:34.141Z,1009.40
2018-02-04T02:45:34.100Z,1009.42
2018-02-04T02:46:34.073Z,1009.46
2018-02-04T02:47:34.350Z,1009.42
2018-02-04T02:48:34.007Z,1009.43
2018-02-04T02:49:33.978Z,1009.41
2018-02-04T02:50:33.940Z,1009.46
2018-02-04T02:51:33.903Z,1009.48
2018-02-04T02:52:33.869Z,1009.45
2018-02-04T02:53:33.843Z,1009.49
2018-02-04T02:54:33.802Z,1009.48
2018-02-04T02:55:33.766Z,1009.48
2018-02-04T02:56:33.731Z,1009.48
2018-02-04T02:57:33.702Z,1009.46
2018-02-04T02:58:33.663Z,1009.46
2018-02-04T02:59:33.896Z,1009.45
2018-02-04T03:00:33.606Z,1009.50
2018-02-04T03:01:33.564Z,1009.50
2018-02-04T03:02:33.534Z,1009.56
2018-02-04T03:03:33.502Z,1009.57
2018-02-04T03:04:33.467Z,1009.60
2018-02-04T03:05:33.681Z,1009.59
2018-02-04T03:06:33.402Z,1009.65
2018-02-04T03:07:33.359Z,1009.64
2018-02-04T03:08:33.329Z,1009.63
2018-02-04T03:09:33.300Z,1009.62
2018-02-04T03:10:33.266Z,1009.65
2018-02-04T03:11:33.232Z,1009.65
2018-02-04T03:12:33.196Z,1009.70
2018-02-04T03:13:33.168Z,1009.72
2018-02-04T03:14:33.133Z,1009.69
2018-02-04T03:15:33.102Z,1009.71
2018-02-04T03:16:33.068Z,1009.75
2018-02-04T03:17:33.030Z,1009.79
2018-02-04T03:18:33.003Z,1009.77
2018-02-04T03:19:32.964Z,1009.77
2018-02-04T03:20:32.938Z,1009.79
2018-02-04T03:21:32.898Z,1009.82
2018-02-04T03:22:32.860Z,1009.82
2018-02-04T03:23:33.123Z,1009.84
2018-02-04T03:24:32.788Z,1009.85
2018-02-04T03:25:32.767Z,1009.93
2018-02-04T03:26:32.733Z,1009.93
2018-02-04T03:27:32.689Z,1009.96
2018-02-04T03:28:32.654Z,1009.98
2018-02-04T03:29:32.878Z,1009.99
2018-02-04T03:30:32.599Z,1010.01
2018-02-04T03:31:32.564Z,1009.97
2018-02-04T03:32:32.528Z,1009.99
2018-02-04T03:33:32.491Z,1010.02
2018-02-04T03:34:32.455Z,1010.05
2018-02-04T03:35:32.424Z,1010.05
2018-02-04T03:36:32.391Z,1010.06
2018-02-04T03:37:32.362Z,1010.05
2018-02-04T03:38:32.329Z,1010.09
2018-02-04T03:39:32.296Z,1010.10
2018-02-04T03:40:32.264Z,1010.10
2018-02-04T03:41:32.226Z,1010.12
2018-02-04T03:42:32.198Z,1010.13
2018-02-04T03:43:32.161Z,1010.13
2018-02-04T03:44:32.122Z,1010.18
2018-02-04T03:45:32.086Z,1010.23
2018-02-04T03:46:32.054Z,1010.25
2018-02-04T03:47:32.026Z,1010.23
2018-02-04T03:48:31.989Z,1010.28
2018-02-04T03:49:31.961Z,1010.28
2018-02-04T03:50:31.921Z,1010.32
2018-02-04T03:51:31.898Z,1010.36
2018-02-04T03:52:32.162Z,1010.39
2018-02-04T03:53:31.821Z,1010.40
2018-02-04T03:54:31.790Z,1010.39
2018-02-04T03:55:31.752Z,1010.47
2018-02-04T03:56:31.725Z,1010.47
2018-02-04T03:57:31.691Z,1010.51
2018-02-04T03:58:31.654Z,1010.52
2018-02-04T03:59:31.624Z,1010.54
2018-02-04T04:00:31.596Z,1010.59
2018-02-04T04:01:31.555Z,1010.57
2018-02-04T04:02:31.519Z,1010.60
2018-02-04T04:03:31.491Z,1010.57
2018-02-04T04:04:31.710Z,1010.60
2018-02-04T04:05:31.417Z,1010.63
2018-02-04T04:06:31.386Z,1010.66
2018-02-04T04:07:31.362Z,1010.67
2018-02-04T04:08:31.323Z,1010.73
2018-02-04T04:09:31.292Z,1010.80
2018-02-04T04:10:31.257Z,1010.79
2018-02-04T04:11:31.218Z,1010.81
2018-02-04T04:12:31.184Z,1010.81
2018-02-04T04:13:31.153Z,1010.86
2018-02-04T04:14:31.128Z,1010.82
2018-02-04T04:15:31.082Z,1010.85
2018-02-04T04:16:31.050Z,1010.87
2018-02-04T04:17:31.019Z,1010.88
2018-02-04T04:18:30.985Z,1010.86
2018-02-04T04:19:30.958Z,1010.89
2018-02-04T04:20:30.922Z,1010.92
2018-02-04T04:21:30.885Z,1010.90
2018-02-04T04:22:30.847Z,1010.96
2018-02-04T04:23:30.826Z,1010.97
2018-02-04T04:24:30.785Z,1010.95
2018-02-04T04:25:30.757Z,1011.03
2018-02-04T04:26:30.727Z,1011.08
2018-02-04T04:27:30.986Z,1011.10
2018-02-04T04:28:30.651Z,1011.12
2018-02-04T04:29:30.623Z,1011.13
2018-02-04T04:30:30.595Z,1011.13
2018-02-04T04:31:30.554Z,1011.18
2018-02-04T04:32:30.517Z,1011.18
2018-02-04T04:33:30.483Z,1011.23
2018-02-04T04:34:30.446Z,1011.28
2018-02-04T04:35:30.429Z,1011.26
2018-02-04T04:36:30.396Z,1011.26
2018-02-04T04:37:30.353Z,1011.34
2018-02-04T04:38:30.319Z,1011.37
2018-02-04T04:39:30.539Z,1011.33
2018-02-04T04:40:30.257Z,1011.33
2018-02-04T04:41:30.222Z,1011.35
2018-02-04T04:42:30.191Z,1011.38
2018-02-04T04:43:30.148Z,1011.45
2018-02-04T04:44:30.665Z,1011.46
2018-02-04T04:45:30.085Z,1011.46
2018-02-04T04:46:30.055Z,1011.52
2018-02-04T04:47:30.020Z,1011.48
2018-02-04T04:48:29.989Z,1011.52
2018-02-04T04:49:29.963Z,1011.57
2018-02-04T04:50:29.919Z,1011.54
2018-02-04T04:51:29.886Z,1011.56
2018-02-04T04:52:29.860Z,1011.53
2018-02-04T04:53:29.821Z,1011.62
2018-02-04T04:54:29.786Z,1011.59
2018-02-04T04:55:29.753Z,1011.64
2018-02-04T04:56:30.022Z,1011.68
2018-02-04T04:57:29.696Z,1011.67
2018-02-04T04:58:29.661Z,1011.74
2018-02-04T04:59:29.622Z,1011.75
2018-02-04T05:00:29.592Z,1011.77
2018-02-04T05:01:29.563Z,1011.80
2018-02-04T05:02:29.828Z,1011.84
2018-02-04T05:03:29.515Z,1011.85
2018-02-04T05:04:29.452Z,1011.89
2018-02-04T05:05:29.420Z,1011.90
2018-02-04T05:06:29.386Z,1011.96
2018-02-04T05:07:29.353Z,1011.97
2018-02-04T05:08:29.324Z,1012.00
2018-02-04T05:09:29.286Z,1012.01
2018-02-04T05:10:29.253Z,1011.97
2018-02-04T05:11:29.226Z,1012.04
2018-02-04T05:12:29.197Z,1012.00
2018-02-04T05:13:29.154Z,1012.04
2018-02-04T05:14:29.119Z,1012.12
2018-02-04T05:15:29.093Z,1012.15
2018-02-04T05:16:29.065Z,1012.18
2018-02-04T05:17:29.026Z,1012.20
2018-02-04T05:18:28.983Z,1012.25
2018-02-04T05:19:29.203Z,1012.28
2018-02-04T05:20:28.921Z,1012.29
2018-02-04T05:21:28.897Z,1012.32
2018-02-04T05:22:28.854Z,1012.32
2018-02-04T05:23:28.819Z,1012.32
2018-02-04T05:24:28.787Z,1012.35
2018-02-04T05:25:28.763Z,1012.40
2018-02-04T05:26:28.731Z,1012.36
2018-02-04T05:27:28.688Z,1012.38
2018-02-04T05:28:28.651Z,1012.38
2018-02-04T05:29:28.621Z,1012.37
2018-02-04T05:30:28.585Z,1012.44
2018-02-04T05:31:28.856Z,1012.43
2018-02-04T05:32:28.525Z,1012.44
2018-02-04T05:33:28.489Z,1012.47
2018-02-04T05:34:28.455Z,1012.43
2018-02-04T05:35:28.422Z,1012.42
2018-02-04T05:36:28.397Z,1012.49
2018-02-04T05:37:28.610Z,1012.49
2018-02-04T05:38:28.334Z,1012.50
2018-02-04T05:39:28.284Z,1012.50
2018-02-04T05:40:28.253Z,1012.50
2018-02-04T05:41:28.227Z,1012.53
2018-02-04T05:42:28.197Z,1012.49
2018-02-04T05:43:28.153Z,1012.49
2018-02-04T05:44:28.122Z,1012.46
2018-02-04T05:45:28.091Z,1012.46
2018-02-04T05:46:28.053Z,1012.46
2018-02-04T05:47:28.035Z,1012.46
2018-02-04T05:48:27.997Z,1012.48
2018-02-04T05:49:27.959Z,1012.49
2018-02-04T05:50:27.919Z,1012.52
2018-02-04T05:51:27.891Z,1012.56
2018-02-04T05:52:27.860Z,1012.62
2018-02-04T05:53:27.823Z,1012.63
2018-02-04T05:54:27.807Z,1012.66
2018-02-04T05:55:27.756Z,1012.75
2018-02-04T05:56:27.724Z,1012.70
2018-02-04T05:57:27.699Z,1012.75
2018-02-04T05:58:27.659Z,1012.81
2018-02-04T05:59:27.618Z,1012.80
2018-02-04T06:00:27.584Z,1012.84
2018-02-04T06:01:27.556Z,1012.83
2018-02-04T06:02:27.520Z,1012.88
2018-02-04T06:03:27.490Z,1012.90
2018-02-04T06:04:27.457Z,1012.98
2018-02-04T06:05:27.425Z,1013.03
2018-02-04T06:06:27.696Z,1013.06
2018-02-04T06:07:27.361Z,1013.12
2018-02-04T06:08:27.329Z,1013.17
2018-02-04T06:09:27.299Z,1013.21
2018-02-04T06:10:27.256Z,1013.28
2018-02-04T06:11:27.222Z,1013.28
2018-02-04T06:12:27.490Z,1013.28
2018-02-04T06:13:27.156Z,1013.31
2018-02-04T06:14:27.124Z,1013.33
2018-02-04T06:15:27.093Z,1013.33
2018-02-04T06:16:27.052Z,1013.40
2018-02-04T06:17:27.027Z,1013.47
2018-02-04T06:18:27.233Z,1013.42
2018-02-04T06:19:26.955Z,1013.49
2018-02-04T06:20:26.929Z,1013.50
2018-02-04T06:21:26.890Z,1013.54
2018-02-04T06:22:26.856Z,1013.53
2018-02-04T06:23:26.823Z,1013.57
2018-02-04T06:24:27.042Z,1013.68
2018-02-04T06:25:26.787Z,1013.72
2018-02-04T06:26:26.724Z,1013.80
2018-02-04T06:27:26.690Z,1013.84
2018-02-04T06:28:26.648Z,1013.84
2018-02-04T06:29:26.624Z,1013.88
2018-02-04T06:30:26.587Z,1013.95
2018-02-04T06:31:26.554Z,1013.96
2018-02-04T06:32:26.523Z,1014.02
2018-02-04T06:33:26.487Z,1014.01
2018-02-04T06:34:26.447Z,1014.06
2018-02-04T06:35:26.441Z,1014.04
2018-02-04T06:36:26.388Z,1014.13
2018-02-04T06:37:26.352Z,1014.06
2018-02-04T06:38:26.400Z,1014.09
2018-02-04T06:39:26.287Z,1014.10
2018-02-04T06:40:26.252Z,1014.14
2018-02-04T06:41:26.225Z,1014.21
2018-02-04T06:42:26.190Z,1014.19
2018-02-04T06:43:26.187Z,1014.22
2018-02-04T06:44:26.115Z,1014.24
2018-02-04T06:45:26.088Z,1014.21
2018-02-04T06:46:26.054Z,1014.25
2018-02-04T06:47:26.015Z,1014.28
2018-02-04T06:48:26.327Z,1014.25
2018-02-04T06:49:25.948Z,1014.29
2018-02-04T06:50:25.910Z,1014.37
2018-02-04T06:51:25.889Z,1014.38
2018-02-04T06:52:25.855Z,1014.45
2018-02-04T06:53:25.813Z,1014.46
2018-02-04T06:54:26.076Z,1014.51
2018-02-04T06:55:25.750Z,1014.52
2018-02-04T06:56:25.720Z,1014.51
2018-02-04T06:57:25.679Z,1014.52
2018-02-04T06:58:25.657Z,1014.56
2018-02-04T06:59:25.612Z,1014.62
2018-02-04T07:00:25.580Z,1014.62
2018-02-04T07:01:25.549Z,1014.67
2018-02-04T07:02:25.515Z,1014.73
2018-02-04T07:03:25.475Z,1014.71
2018-02-04T07:04:25.442Z,1014.76
2018-02-04T07:05:25.406Z,1014.80
2018-02-04T07:06:25.375Z,1014.82
2018-02-04T07:07:25.350Z,1014.86
2018-02-04T07:08:25.321Z,1014.85
2018-02-04T07:09:25.280Z,1014.86
2018-02-04T07:10:25.248Z,1014.91
2018-02-04T07:11:25.211Z,1014.93
2018-02-04T07:12:25.172Z,1015.00
2018-02-04T07:13:25.140Z,1015.01
2018-02-04T07:14:25.106Z,1015.06
2018-02-04T07:15:25.069Z,1015.03
2018-02-04T07:16:25.038Z,1015.02
2018-02-04T07:17:25.022Z,1015.01
2018-02-04T07:18:24.967Z,1015.03
2018-02-04T07:19:24.931Z,1015.04
2018-02-04T07:20:24.903Z,1015.04
2018-02-04T07:21:24.876Z,1015.11
2018-02-04T07:22:25.181Z,1015.22
2018-02-04T07:23:24.813Z,1015.26
2018-02-04T07:24:24.770Z,1015.24
2018-02-04T07:25:24.738Z,1015.26
2018-02-04T07:26:24.699Z,1015.35
2018-02-04T07:27:24.663Z,1015.24
2018-02-04T07:28:24.634Z,1015.19
2018-02-04T07:29:24.595Z,1015.29
2018-02-04T07:30:24.577Z,1015.29
2018-02-04T07:31:24.529Z,1015.29
2018-02-04T07:32:24.501Z,1015.26
2018-02-04T07:33:24.462Z,1015.30
2018-02-04T07:34:24.430Z,1015.34
2018-02-04T07:35:24.401Z,1015.27
2018-02-04T07:36:24.364Z,1015.27
2018-02-04T07:37:24.327Z,1015.26
2018-02-04T07:38:24.294Z,1015.32
2018-02-04T07:39:24.258Z,1015.34
2018-02-04T07:40:24.528Z,1015.50
2018-02-04T07:41:24.196Z,1015.44
2018-02-04T07:42:24.164Z,1015.45
2018-02-04T07:43:24.125Z,1015.50
2018-02-04T07:44:24.097Z,1015.49
2018-02-04T07:45:24.070Z,1015.55
2018-02-04T07:46:24.377Z,1015.47
2018-02-04T07:47:23.998Z,1015.50
2018-02-04T07:48:23.965Z,1015.51
2018-02-04T07:49:23.931Z,1015.53
2018-02-04T07:50:23.895Z,1015.52
2018-02-04T07:51:23.872Z,1015.55
2018-02-04T07:52:24.178Z,1015.61
2018-02-04T07:53:23.796Z,1015.66
2018-02-04T07:54:23.764Z,1015.67
2018-02-04T07:55:23.728Z,1015.72
2018-02-04T07:56:23.698Z,1015.76
2018-02-04T07:57:23.674Z,1015.77
2018-02-04T07:58:23.949Z,1015.77
2018-02-04T07:59:23.595Z,1015.75
2018-02-04T08:00:23.562Z,1015.77
2018-02-04T08:01:23.531Z,1015.76
2018-02-04T08:02:23.499Z,1015.75
2018-02-04T08:03:23.462Z,1015.75
2018-02-04T08:04:23.438Z,1015.76
2018-02-04T08:05:23.400Z,1015.80
2018-02-04T08:06:23.361Z,1015.87
2018-02-04T08:07:23.333Z,1015.84
2018-02-04T08:08:23.301Z,1015.88
2018-02-04T08:09:23.272Z,1015.94
2018-02-04T08:10:23.232Z,1015.97
2018-02-04T08:11:23.197Z,1015.96
2018-02-04T08:12:23.169Z,1015.99
2018-02-04T08:13:23.137Z,1015.97
2018-02-04T08:14:23.100Z,1015.99
2018-02-04T08:15:23.069Z,1016.00
2018-02-04T08:16:23.025Z,1015.93
2018-02-04T08:17:22.999Z,1015.99
2018-02-04T08:18:22.964Z,1015.99
2018-02-04T08:19:22.938Z,1016.11
2018-02-04T08:20:22.901Z,1016.08
2018-02-04T08:21:22.859Z,1016.17
2018-02-04T08:22:22.828Z,1016.08
2018-02-04T08:23:22.804Z,1016.12
2018-02-04T08:24:22.770Z,1016.07
2018-02-04T08:25:22.735Z,1016.11
2018-02-04T08:26:22.705Z,1016.06
2018-02-04T08:27:22.666Z,1016.10
2018-02-04T08:28:22.638Z,1016.10
2018-02-04T08:29:22.602Z,1016.13
2018-02-04T08:30:22.571Z,1016.19
2018-02-04T08:31:22.527Z,1016.29
2018-02-04T08:32:22.494Z,1016.23
2018-02-04T08:33:22.464Z,1016.21
2018-02-04T08:34:22.434Z,1016.28
2018-02-04T08:35:22.410Z,1016.34
2018-02-04T08:36:22.371Z,1016.34
2018-02-04T08:37:22.329Z,1016.34
2018-02-04T08:38:22.296Z,1016.33
2018-02-04T08:39:22.516Z,1016.30
2018-02-04T08:40:22.238Z,1016.34
2018-02-04T08:41:22.209Z,1016.41
2018-02-04T08:42:22.170Z,1016.47
2018-02-04T08:43:22.134Z,1016.50
2018-02-04T08:44:22.105Z,1016.41
2018-02-04T08:45:22.075Z,1016.50
2018-02-04T08:46:22.046Z,1016.47
2018-02-04T08:47:22.003Z,1016.47
2018-02-04T08:48:21.970Z,1016.51
2018-02-04T08:49:21.942Z,1016.53
2018-02-04T08:50:21.906Z,1016.59
2018-02-04T08:51:21.875Z,1016.58
2018-02-04T08:52:21.845Z,1016.53
2018-02-04T08:53:21.805Z,1016.58
2018-02-04T08:54:21.774Z,1016.60
2018-02-04T08:55:21.747Z,1016.62
2018-02-04T08:56:22.016Z,1016.65
2018-02-04T08:57:21.685Z,1016.68
2018-02-04T08:58:21.644Z,1016.73
2018-02-04T08:59:21.607Z,1016.76
2018-02-04T09:00:21.577Z,1016.77
2018-02-04T09:01:21.552Z,1016.81
2018-02-04T09:02:21.821Z,1016.79
2018-02-04T09:03:21.479Z,1016.84
2018-02-04T09:04:21.461Z,1016.86
2018-02-04T09:05:21.418Z,1016.85
2018-02-04T09:06:21.387Z,1016.86
2018-02-04T09:07:21.364Z,1016.88
2018-02-04T09:08:21.582Z,1016.91
2018-02-04T09:09:21.290Z,1016.96
2018-02-04T09:10:21.261Z,1016.94
2018-02-04T09:11:21.224Z,1016.99
2018-02-04T09:12:21.196Z,1016.92
2018-02-04T09:13:21.164Z,1016.96
2018-02-04T09:14:21.133Z,1016.98
2018-02-04T09:15:21.106Z,1016.99
2018-02-04T09:16:21.069Z,1016.94
2018-02-04T09:17:21.035Z,1016.95
2018-02-04T09:18:21.005Z,1017.00
2018-02-04T09:19:20.973Z,1017.00
2018-02-04T09:20:20.940Z,1017.03
2018-02-04T09:21:20.904Z,1017.04
2018-02-04T09:22:20.871Z,1017.05
2018-02-04T09:23:20.843Z,1017.06
2018-02-04T09:24:20.809Z,1017.12
2018-02-04T09:25:20.779Z,1017.10
2018-02-04T09:26:20.747Z,1017.14
2018-02-04T09:27:20.721Z,1017.13
2018-02-04T09:28:20.685Z,1017.15
2018-02-04T09:29:20.650Z,1017.14
2018-02-04T09:30:20.633Z,1017.14
2018-02-04T09:31:20.584Z,1017.12
2018-02-04T09:32:20.556Z,1017.11
2018-02-04T09:33:20.518Z,1017.14
2018-02-04T09:34:20.487Z,1017.15
2018-02-04T09:35:20.468Z,1017.13
2018-02-04T09:36:20.734Z,1017.20
2018-02-04T09:37:20.404Z,1017.21
2018-02-04T09:38:20.370Z,1017.21
2018-02-04T09:39:20.340Z,1017.22
2018-02-04T09:40:20.303Z,1017.19
2018-02-04T09:41:20.276Z,1017.18
2018-02-04T09:42:20.239Z,1017.19
2018-02-04T09:43:20.209Z,1017.24
2018-02-04T09:44:20.174Z,1017.26
2018-02-04T09:45:20.148Z,1017.27
2018-02-04T09:46:20.108Z,1017.29
2018-02-04T09:47:20.084Z,1017.27
2018-02-04T09:48:20.412Z,1017.24
2018-02-04T09:49:20.015Z,1017.25
2018-02-04T09:50:19.983Z,1017.31
2018-02-04T09:51:19.956Z,1017.32
2018-02-04T09:52:19.923Z,1017.30
2018-02-04T09:53:19.897Z,1017.29
2018-02-04T09:54:19.858Z,1017.28
2018-02-04T09:55:19.824Z,1017.31
2018-02-04T09:56:19.797Z,1017.34
2018-02-04T09:57:19.775Z,1017.33
2018-02-04T09:58:19.736Z,1017.34
2018-02-04T09:59:19.709Z,1017.32
2018-02-04T10:00:19.668Z,1017.30
2018-02-04T10:01:19.645Z,1017.30
2018-02-04T10:02:19.611Z,1017.32
2018-02-04T10:03:19.573Z,1017.31
2018-02-04T10:04:19.566Z,1017.38
2018-02-04T10:05:19.514Z,1017.41
2018-02-04T10:06:19.501Z,1017.41
2018-02-04T10:07:19.447Z,1017.40
2018-02-04T10:08:19.470Z,1017.44
2018-02-04T10:09:19.388Z,1017.45
2018-02-04T10:10:19.356Z,1017.46
2018-02-04T10:11:19.316Z,1017.45
2018-02-04T10:12:19.537Z,1017.44
2018-02-04T10:13:19.257Z,1017.45
2018-02-04T10:14:19.224Z,1017.46
2018-02-04T10:15:19.194Z,1017.40
2018-02-04T10:16:19.157Z,1017.46
2018-02-04T10:17:19.134Z,1017.41
2018-02-04T10:18:19.100Z,1017.43
2018-02-04T10:19:19.065Z,1017.47
2018-02-04T10:20:19.038Z,1017.54
2018-02-04T10:21:19.001Z,1017.53
2018-02-04T10:22:18.971Z,1017.52
2018-02-04T10:23:18.942Z,1017.50
2018-02-04T10:24:19.246Z,1017.47
2018-02-04T10:25:18.877Z,1017.50
2018-02-04T10:26:18.841Z,1017.51
2018-02-04T10:27:18.808Z,1017.52
2018-02-04T10:28:18.771Z,1017.54
2018-02-04T10:29:18.748Z,1017.54
2018-02-04T10:30:18.717Z,1017.56
2018-02-04T10:31:18.685Z,1017.58
2018-02-04T10:32:18.649Z,1017.58
2018-02-04T10:33:18.618Z,1017.62
2018-02-04T10:34:18.585Z,1017.67
2018-02-04T10:35:18.552Z,1017.63
2018-02-04T10:36:18.558Z,1017.65
2018-02-04T10:37:18.485Z,1017.69
2018-02-04T10:38:18.451Z,1017.68
2018-02-04T10:39:18.433Z,1017.69
2018-02-04T10:40:18.395Z,1017.77
2018-02-04T10:41:18.362Z,1017.73
2018-02-04T10:42:18.324Z,1017.77
2018-02-04T10:43:18.343Z,1017.80
2018-02-04T10:44:18.262Z,1017.76
2018-02-04T10:45:18.230Z,1017.76
2018-02-04T10:46:18.207Z,1017.80
2018-02-04T10:47:18.168Z,1017.79
2018-02-04T10:48:18.379Z,1017.82
2018-02-04T10:49:18.109Z,1017.84
2018-02-04T10:50:18.062Z,1017.84
2018-02-04T10:51:18.040Z,1017.85
2018-02-04T10:52:18.009Z,1017.83
2018-02-04T10:53:17.964Z,1017.84
2018-02-04T10:54:17.934Z,1017.88
2018-02-04T10:55:17.907Z,1017.87
2018-02-04T10:56:17.874Z,1017.93
2018-02-04T10:57:17.842Z,1017.92
2018-02-04T10:58:17.812Z,1017.95
2018-02-04T10:59:17.772Z,1017.97
2018-02-04T11:00:17.740Z,1017.99
2018-02-04T11:01:17.712Z,1017.98
2018-02-04T11:02:17.684Z,1018.01
2018-02-04T11:03:17.640Z,1018.00
2018-02-04T11:04:17.616Z,1018.05
2018-02-04T11:05:17.595Z,1018.03
2018-02-04T11:06:17.548Z,1018.06
2018-02-04T11:07:17.515Z,1018.08
2018-02-04T11:08:17.491Z,1018.04
2018-02-04T11:09:17.451Z,1018.08
2018-02-04T11:10:17.420Z,1018.07
2018-02-04T11:11:17.687Z,1018.05
2018-02-04T11:12:17.359Z,1018.02
2018-02-04T11:13:17.326Z,1018.05
2018-02-04T11:14:17.290Z,1018.06
2018-02-04T11:15:17.255Z,1018.09
2018-02-04T11:16:17.472Z,1018.08
2018-02-04T11:17:17.194Z,1018.08
2018-02-04T11:18:17.184Z,1018.10
2018-02-04T11:19:17.130Z,1018.11
2018-02-04T11:20:17.090Z,1018.16
2018-02-04T11:21:17.061Z,1018.12
2018-02-04T11:22:17.274Z,1018.16
2018-02-04T11:23:16.999Z,1018.16
2018-02-04T11:24:16.964Z,1018.13
2018-02-04T11:25:16.928Z,1018.15
2018-02-04T11:26:16.897Z,1018.19
2018-02-04T11:27:16.874Z,1018.19
2018-02-04T11:28:16.838Z,1018.13
2018-02-04T11:29:16.805Z,1018.13
2018-02-04T11:30:16.773Z,1018.14
2018-02-04T11:31:16.738Z,1018.13
2018-02-04T11:32:16.707Z,1018.17
2018-02-04T11:33:16.679Z,1018.12
2018-02-04T11:34:16.648Z,1018.16
2018-02-04T11:35:16.613Z,1018.18
2018-02-04T11:36:16.579Z,1018.22
2018-02-04T11:37:16.543Z,1018.29
2018-02-04T11:38:16.511Z,1018.28
2018-02-04T11:39:16.480Z,1018.29
2018-02-04T11:40:16.449Z,1018.33
2018-02-04T11:41:16.416Z,1018.34
2018-02-04T11:42:16.388Z,1018.39
2018-02-04T11:43:16.350Z,1018.33
2018-02-04T11:44:16.320Z,1018.31
2018-02-04T11:45:16.287Z,1018.28
2018-02-04T11:46:16.254Z,1018.28
2018-02-04T11:47:16.224Z,1018.27
2018-02-04T11:48:16.192Z,1018.26
2018-02-04T11:49:16.157Z,1018.26
2018-02-04T11:50:16.124Z,1018.28
2018-02-04T11:51:16.344Z,1018.28
2018-02-04T11:52:16.073Z,1018.27
2018-02-04T11:53:16.029Z,1018.25
2018-02-04T11:54:16.001Z,1018.25
2018-02-04T11:55:15.994Z,1018.31
2018-02-04T11:56:15.927Z,1018.34
2018-02-04T11:57:16.156Z,1018.34
2018-02-04T11:58:15.869Z,1018.32
2018-02-04T11:59:15.829Z,1018.42
2018-02-04T12:00:15.798Z,1018.34
2018-02-04T12:01:15.766Z,1018.38
2018-02-04T12:02:15.736Z,1018.38
2018-02-04T12:03:15.710Z,1018.38
2018-02-04T12:04:15.675Z,1018.40
2018-02-04T12:05:15.637Z,1018.43